Time;durP1;ratioP1;P1;durP2;ratioP2;P2;SDS_P1;SDS_P2;PMS_P1;PMS_P2;Temp;Humidity;BMP_temperature;BMP_pressure;BME280_temperature;BME280_humidity;BME280_pressure;Samples;Min_cycle;Max_cycle;Signal;HPM_P1;HPM_P2
2023/12/07 00:04:58;;;;;;;5.60;2.95;;;;;;;15.48;100.00;101072.41;10572068;28;20138;-76
2023/12/07 00:10:20;;;;;;;11.15;3.67;;;;;;;15.49;100.00;101069.72;10582946;28;20043;-76
2023/12/07 00:15:44;;;;;;;10.85;3.70;;;;;;;15.63;100.00;101075.09;10599604;27;20118;-76
2023/12/07 00:21:09;;;;;;;6.10;2.70;;;;;;;15.69;100.00;101066.22;10596473;28;20048;-76
2023/12/07 00:26:31;;;;;;;5.28;3.10;;;;;;;15.65;100.00;101067.13;10600765;28;20051;-77
2023/12/07 00:31:55;;;;;;;5.43;3.60;;;;;;;15.56;100.00;101061.81;10600511;27;20520;-76
2023/12/07 00:37:18;;;;;;;8.43;3.60;;;;;;;15.58;100.00;101057.38;10592812;27;20453;-76
2023/12/07 00:42:40;;;;;;;5.93;2.33;;;;;;;15.38;100.00;101047.56;10607759;27;20039;-77
2023/12/07 00:48:05;;;;;;;8.18;2.92;;;;;;;15.18;100.00;101043.09;10593164;27;20147;-76
2023/12/07 00:53:28;;;;;;;10.13;4.80;;;;;;;15.30;100.00;101054.66;10593452;27;20133;-76
2023/12/07 00:58:50;;;;;;;6.82;3.15;;;;;;;15.24;100.00;101048.44;10592717;27;20075;-76
2023/12/07 01:04:14;;;;;;;5.88;2.75;;;;;;;15.22;100.00;101044.91;10590427;27;20204;-76
2023/12/07 01:09:37;;;;;;;4.40;3.00;;;;;;;15.22;100.00;101020.97;10590779;27;20055;-76
2023/12/07 01:14:59;;;;;;;5.55;2.72;;;;;;;15.12;100.00;101031.59;10588499;27;20039;-76
2023/12/07 01:20:23;;;;;;;8.75;3.00;;;;;;;14.99;100.00;101034.22;10587861;27;20082;-76
2023/12/07 01:25:46;;;;;;;4.80;2.80;;;;;;;14.88;100.00;101028.91;10563722;28;20055;-76
2023/12/07 01:31:09;;;;;;;5.53;2.97;;;;;;;14.75;100.00;101032.41;10550466;27;20067;-76
2023/12/07 01:36:33;;;;;;;12.43;4.28;;;;;;;14.88;100.00;101020.03;10580154;27;20057;-76
2023/12/07 01:41:55;;;;;;;4.97;2.47;;;;;;;15.03;100.00;101007.63;10590931;27;20055;-76
2023/12/07 01:47:18;;;;;;;28.45;9.90;;;;;;;14.87;100.00;101008.50;10603293;27;20047;-76
2023/12/07 01:52:45;;;;;;;9.23;4.15;;;;;;;14.79;100.00;101002.28;10570958;27;20660;-76
2023/12/07 01:58:08;;;;;;;6.90;3.63;;;;;;;14.71;100.00;100999.59;10564457;27;20073;-76
2023/12/07 02:03:32;;;;;;;9.40;3.05;;;;;;;14.58;100.00;101007.53;10575980;27;20043;-76
2023/12/07 02:08:56;;;;;;;12.00;3.70;;;;;;;14.53;100.00;101009.28;10575871;27;20054;-75
2023/12/07 02:14:19;;;;;;;10.52;3.13;;;;;;;14.50;100.00;101006.66;10581228;27;20362;-76
2023/12/07 02:19:53;;;;;;;15.68;5.45;;;;;;;14.70;100.00;101008.44;10570090;27;20046;-76
2023/12/07 02:25:20;;;;;;;6.45;2.45;;;;;;;14.87;100.00;101007.63;10582180;27;20134;-75
2023/12/07 02:30:44;;;;;;;8.60;4.40;;;;;;;15.08;100.00;101013.88;10585032;27;20047;-76
2023/12/07 02:36:07;;;;;;;8.88;2.35;;;;;;;15.13;100.00;101012.09;10598402;27;20099;-75
2023/12/07 02:41:31;;;;;;;5.28;2.42;;;;;;;15.20;100.00;101012.09;10579555;27;20492;-77
2023/12/07 02:46:55;;;;;;;3.53;2.22;;;;;;;15.16;100.00;101013.88;10566409;27;20056;-76
2023/12/07 02:52:17;;;;;;;4.95;2.28;;;;;;;15.14;100.00;101020.97;10582435;27;20104;-75
2023/12/07 02:57:40;;;;;;;8.52;3.72;;;;;;;15.24;100.00;101040.47;10562827;27;20047;-76
2023/12/07 03:03:04;;;;;;;7.18;2.55;;;;;;;15.32;100.00;101036.94;10566618;27;20140;-75
2023/12/07 03:08:28;;;;;;;11.93;6.30;;;;;;;15.41;100.00;101025.41;10564096;27;20050;-76
2023/12/07 03:13:50;;;;;;;8.85;2.55;;;;;;;15.66;100.00;101024.53;10593506;27;20740;-76
2023/12/07 03:19:14;;;;;;;5.00;2.78;;;;;;;15.57;100.00;101015.66;10547752;27;20143;-77
2023/12/07 03:24:39;;;;;;;5.75;2.35;;;;;;;15.43;100.00;101008.53;10576842;27;20079;-76
2023/12/07 03:30:02;;;;;;;5.88;2.20;;;;;;;15.48;100.00;101013.88;10565463;27;20143;-76
2023/12/07 03:35:25;;;;;;;3.97;2.00;;;;;;;15.46;100.00;101023.63;10565603;27;20396;-76
2023/12/07 03:40:49;;;;;;;9.95;2.33;;;;;;;15.57;100.00;101010.34;10594719;28;20047;-75
2023/12/07 03:46:11;;;;;;;5.03;2.30;;;;;;;15.67;100.00;101007.69;10586644;27;20063;-75
2023/12/07 03:51:36;;;;;;;5.53;2.55;;;;;;;15.75;100.00;101005.03;10574567;28;20047;-76
2023/12/07 03:56:59;;;;;;;3.33;1.98;;;;;;;15.76;100.00;101012.09;10560177;28;20050;-76
2023/12/07 04:02:21;;;;;;;4.57;2.42;;;;;;;15.85;100.00;101012.09;10573182;27;20496;-75
2023/12/07 04:07:45;;;;;;;4.82;2.20;;;;;;;15.94;100.00;101028.94;10577009;27;20047;-75
2023/12/07 04:13:08;;;;;;;5.78;2.17;;;;;;;15.84;100.00;101042.25;10602432;27;20047;-76
2023/12/07 04:18:30;;;;;;;4.75;1.77;;;;;;;15.81;100.00;101045.84;10594650;27;20044;-76
2023/12/07 04:23:55;;;;;;;5.00;1.52;;;;;;;15.97;100.00;101051.09;10608093;27;20051;-75
2023/12/07 04:29:17;;;;;;;6.95;1.90;;;;;;;16.02;100.00;101055.53;10580071;27;20105;-75
2023/12/07 04:34:39;;;;;;;4.38;1.90;;;;;;;15.93;100.00;101052.91;10556966;27;20055;-76
2023/12/07 04:40:05;;;;;;;3.90;1.40;;;;;;;15.87;100.00;101059.13;10607324;27;20047;-75
2023/12/07 04:45:27;;;;;;;5.45;1.75;;;;;;;15.83;100.00;101064.44;10584971;27;20062;-75
2023/12/07 04:50:49;;;;;;;8.73;1.80;;;;;;;15.61;100.00;101068.91;10590621;27;20044;-75
2023/12/07 04:56:13;;;;;;;8.65;1.67;;;;;;;15.68;100.00;101070.69;10574996;27;20144;-76
2023/12/07 05:01:36;;;;;;;4.85;1.98;;;;;;;15.64;100.00;101054.69;10576918;27;20133;-75
2023/12/07 05:06:58;;;;;;;11.18;2.92;;;;;;;15.59;100.00;101070.66;10580345;27;20047;-76
2023/12/07 05:12:22;;;;;;;9.20;6.88;;;;;;;15.54;100.00;101059.16;10606041;27;20412;-75
2023/12/07 05:17:45;;;;;;;8.13;6.70;;;;;;;15.62;100.00;101052.03;10575811;27;20039;-75
2023/12/07 05:23:07;;;;;;;11.73;6.38;;;;;;;15.65;100.00;101054.69;10574680;27;20504;-76
2023/12/07 05:28:31;;;;;;;9.65;5.82;;;;;;;15.83;100.00;101068.00;10581782;27;20051;-75
2023/12/07 05:33:54;;;;;;;6.47;3.42;;;;;;;16.02;100.00;101068.84;10578584;27;20162;-75
2023/12/07 05:39:17;;;;;;;12.30;4.45;;;;;;;16.02;100.00;101078.63;10564531;27;20055;-76
2023/12/07 05:44:41;;;;;;;8.93;4.30;;;;;;;16.00;100.00;101073.31;10563394;27;20070;-76
2023/12/07 05:50:04;;;;;;;10.27;5.13;;;;;;;16.20;100.00;101075.94;10577237;27;20042;-77
2023/12/07 05:55:26;;;;;;;14.63;5.90;;;;;;;16.47;100.00;101082.97;10582311;27;20055;-76
2023/12/07 06:00:50;;;;;;;43.72;32.17;;;;;;;16.55;100.00;101074.03;10582674;27;20040;-76
2023/12/07 06:06:13;;;;;;;19.73;14.52;;;;;;;16.72;100.00;101071.34;10569446;27;20486;-75
2023/12/07 06:11:35;;;;;;;10.43;4.20;;;;;;;16.65;100.00;101061.59;10580660;27;20062;-76
2023/12/07 06:17:01;;;;;;;9.27;3.17;;;;;;;16.53;100.00;101083.84;10576273;27;20047;-76
2023/12/07 06:22:23;;;;;;;5.32;1.77;;;;;;;16.58;100.00;101081.13;10560982;28;20039;-76
2023/12/07 06:27:45;;;;;;;24.25;16.90;;;;;;;16.91;100.00;101072.13;10589653;27;20043;-76
2023/12/07 06:33:10;;;;;;;10.23;6.43;;;;;;;17.31;100.00;101075.44;10553198;27;20408;-76
2023/12/07 06:38:32;;;;;;;24.02;21.13;;;;;;;17.75;100.00;101088.47;10562533;27;20055;-76
2023/12/07 06:43:55;;;;;;;23.48;18.42;;;;;;;18.26;100.00;101079.06;10593000;27;20627;-76
2023/12/07 06:49:19;;;;;;;26.27;21.05;;;;;;;18.28;100.00;101083.50;10566603;27;20057;-76
2023/12/07 06:54:41;;;;;;;30.25;20.60;;;;;;;18.30;100.00;101087.06;10578704;27;20055;-75
2023/12/07 07:00:10;;;;;;;22.35;16.77;;;;;;;18.29;100.00;101082.59;10597805;27;20442;-76
2023/12/07 07:05:34;;;;;;;20.95;16.25;;;;;;;18.26;100.00;101096.00;10581619;27;20101;-76
2023/12/07 07:10:57;;;;;;;16.25;11.50;;;;;;;18.78;100.00;101092.75;10599711;27;20519;-76
2023/12/07 07:16:19;;;;;;;23.10;13.95;;;;;;;19.73;100.00;101101.19;10596429;27;20055;-76
2023/12/07 07:21:43;;;;;;;23.90;20.15;;;;;;;21.04;94.13;101090.63;10589331;27;20507;-76
2023/12/07 07:27:06;;;;;;;25.20;19.95;;;;;;;21.58;88.47;101093.88;10573981;27;20126;-76
2023/12/07 07:32:28;;;;;;;18.45;15.32;;;;;;;21.42;92.55;101095.16;10600103;27;20434;-76
2023/12/07 07:37:53;;;;;;;13.88;12.30;;;;;;;21.23;94.54;101102.75;10600822;28;20089;-76
2023/12/07 07:43:16;;;;;;;10.55;5.90;;;;;;;21.41;91.77;101096.97;10563497;28;20330;-76
2023/12/07 07:48:39;;;;;;;12.15;5.50;;;;;;;21.20;91.73;101107.34;10567260;28;20146;-76
2023/12/07 07:54:03;;;;;;;10.43;4.75;;;;;;;21.67;92.08;101115.13;10585438;27;20142;-76
2023/12/07 07:59:25;;;;;;;6.07;1.60;;;;;;;25.06;62.25;101118.06;10596780;27;20116;-76
2023/12/07 08:04:48;;;;;;;6.13;1.42;;;;;;;23.94;60.68;101109.47;10604357;27;20040;-77
2023/12/07 08:10:12;;;;;;;6.30;1.20;;;;;;;22.46;70.45;101109.53;10603720;27;20484;-76
2023/12/07 08:15:34;;;;;;;6.30;1.50;;;;;;;22.26;70.78;101102.88;10590702;27;20510;-75
2023/12/07 08:20:58;;;;;;;9.43;2.20;;;;;;;22.37;69.28;101090.97;10598350;27;20040;-76
2023/12/07 08:26:23;;;;;;;6.20;1.40;;;;;;;22.79;65.27;101089.75;10598193;27;20053;-76
2023/12/07 08:31:46;;;;;;;5.97;1.80;;;;;;;23.59;57.69;101086.38;10604942;27;20050;-76
2023/12/07 08:37:09;;;;;;;7.88;2.67;;;;;;;23.90;56.29;101091.63;10615996;27;20652;-77
2023/12/07 08:42:33;;;;;;;5.40;1.40;;;;;;;23.87;54.17;101088.16;10606016;27;20043;-78
2023/12/07 08:47:55;;;;;;;6.57;1.85;;;;;;;24.53;52.21;101088.50;10605320;27;20519;-78
2023/12/07 08:53:17;;;;;;;5.93;1.20;;;;;;;25.29;47.50;101079.28;10593327;27;20051;-78
2023/12/07 08:58:42;;;;;;;5.63;1.20;;;;;;;25.59;46.73;101067.28;10607311;27;20035;-77
2023/12/07 09:04:05;;;;;;;5.38;1.50;;;;;;;26.28;45.84;101058.91;10588270;27;20130;-77
2023/12/07 09:09:27;;;;;;;7.32;1.25;;;;;;;28.50;40.70;101044.28;10588227;27;20044;-77
2023/12/07 09:14:51;;;;;;;4.00;1.23;;;;;;;28.40;39.77;101056.63;10567099;27;20035;-77
2023/12/07 09:20:14;;;;;;;4.95;1.40;;;;;;;26.93;42.56;101043.25;10577896;28;20050;-77
2023/12/07 09:25:36;;;;;;;5.97;1.55;;;;;;;25.92;45.40;101035.22;10564470;27;20401;-77
2023/12/07 09:31:00;;;;;;;5.75;1.75;;;;;;;25.16;47.85;101035.66;10588009;27;20507;-77
2023/12/07 09:36:26;;;;;;;4.03;1.20;;;;;;;24.26;51.04;101031.94;10603732;27;20051;-78
2023/12/07 09:41:49;;;;;;;6.00;1.50;;;;;;;23.34;60.13;101026.09;10591310;27;20056;-77
2023/12/07 09:47:13;;;;;;;7.03;1.60;;;;;;;22.94;66.62;101013.91;10605176;27;20051;-77
2023/12/07 09:52:37;;;;;;;5.18;1.40;;;;;;;22.36;76.43;101000.41;10591129;27;20042;-77
2023/12/07 09:57:59;;;;;;;11.07;4.50;;;;;;;22.36;81.93;101003.09;10605389;27;20510;-77
2023/12/07 10:03:24;;;;;;;5.65;1.30;;;;;;;25.26;64.08;101001.94;10604168;27;20050;-76
2023/12/07 10:08:46;;;;;;;4.70;1.85;;;;;;;25.70;55.26;100973.03;10586930;27;20061;-77
2023/12/07 10:14:09;;;;;;;6.15;1.20;;;;;;;26.41;52.74;100984.31;10590064;27;20055;-77
2023/12/07 10:19:33;;;;;;;5.00;1.00;;;;;;;27.07;47.88;100974.81;10604413;27;20047;-77
2023/12/07 10:24:55;;;;;;;6.68;4.55;;;;;;;28.82;42.22;100963.72;10589226;27;20050;-77
2023/12/07 10:30:24;;;;;;;4.10;1.20;;;;;;;28.20;42.90;100964.47;10603904;27;20047;-76
2023/12/07 10:35:50;;;;;;;6.82;1.00;;;;;;;26.67;45.92;100967.72;10603972;27;20039;-77
2023/12/07 10:41:14;;;;;;;5.20;1.20;;;;;;;24.85;51.11;100962.16;10588765;27;20082;-76
2023/12/07 10:46:38;;;;;;;8.25;1.58;;;;;;;23.85;56.90;100945.28;10602740;27;20082;-76
2023/12/07 10:52:08;;;;;;;6.63;1.50;;;;;;;23.38;62.14;100944.22;10602747;27;20055;-76
2023/12/07 10:57:31;;;;;;;6.68;1.55;;;;;;;23.30;62.46;100933.69;10574762;27;20442;-76
2023/12/07 11:02:54;;;;;;;9.20;1.83;;;;;;;22.97;65.07;100933.00;10587778;27;20142;-76
2023/12/07 11:08:27;;;;;;;9.82;1.80;;;;;;;23.23;65.39;100940.25;10559272;28;20070;-76
2023/12/07 11:13:55;;;;;;;5.38;2.85;;;;;;;22.98;69.52;100932.06;10586553;27;20051;-76
2023/12/07 11:19:45;;;;;;;15.40;9.18;;;;;;;23.24;71.07;100943.78;10601628;27;20043;-78
2023/12/07 11:25:10;;;;;;;9.35;3.35;;;;;;;24.65;62.88;100932.38;10558984;28;20474;-77
2023/12/07 11:30:34;;;;;;;6.72;1.75;;;;;;;24.78;58.77;100915.63;10559506;28;20573;-77
2023/12/07 11:36:08;;;;;;;6.95;3.30;;;;;;;24.19;60.07;100899.97;10588273;27;20051;-77
2023/12/07 11:41:35;;;;;;;11.40;2.53;;;;;;;23.86;62.03;100897.63;10582443;27;20054;-77
2023/12/07 11:46:58;;;;;;;7.85;1.60;;;;;;;23.93;59.64;100891.06;10569554;28;20050;-76
2023/12/07 11:52:22;;;;;;;7.50;1.23;;;;;;;23.92;60.64;100878.50;10595043;28;20073;-76
2023/12/07 11:57:46;;;;;;;6.28;1.58;;;;;;;24.05;59.69;100888.78;10599051;28;20051;-78
2023/12/07 12:03:08;;;;;;;10.80;2.42;;;;;;;23.52;59.95;100874.56;10600134;27;20221;-76
2023/12/07 12:08:30;;;;;;;10.13;1.60;;;;;;;23.33;61.40;100862.66;10586588;28;20492;-76
2023/12/07 12:13:55;;;;;;;7.10;1.50;;;;;;;23.27;61.07;100866.44;10589574;28;20051;-76
2023/12/07 12:19:17;;;;;;;7.20;1.83;;;;;;;22.97;60.84;100867.53;10583387;28;20044;-75
2023/12/07 12:24:41;;;;;;;6.55;1.30;;;;;;;22.47;63.04;100855.66;10580712;28;20047;-77
2023/12/07 12:30:07;;;;;;;6.70;1.83;;;;;;;22.54;63.54;100843.78;10587607;27;20071;-77
2023/12/07 12:35:29;;;;;;;7.88;1.40;;;;;;;22.27;61.63;100858.97;10606822;27;20079;-77
2023/12/07 12:40:53;;;;;;;5.80;1.15;;;;;;;;;;10606798;27;20047;-75
2023/12/07 12:46:18;;;;;;;4.93;1.63;;;;;;;22.26;61.61;100851.84;10597730;27;20051;-77
2023/12/07 12:51:40;;;;;;;6.13;1.90;;;;;;;22.31;60.29;100865.16;10589215;27;20146;-77
2023/12/07 12:57:03;;;;;;;10.43;3.33;;;;;;;22.23;59.87;100851.94;10607013;27;20488;-76
2023/12/07 13:02:27;;;;;;;12.57;3.88;;;;;;;21.97;61.71;100859.91;10607878;27;20067;-75
2023/12/07 13:07:49;;;;;;;15.02;2.20;;;;;;;21.96;61.63;100848.28;10573742;27;20057;-74
2023/12/07 13:13:12;;;;;;;9.63;1.67;;;;;;;22.14;60.24;100855.78;10602815;27;20159;-77
2023/12/07 13:18:36;;;;;;;7.32;1.42;;;;;;;22.18;60.46;100849.41;10586538;27;20055;-78
2023/12/07 13:23:58;;;;;;;7.90;1.80;;;;;;;21.70;63.60;100846.31;10588049;27;20097;-77
2023/12/07 13:29:21;;;;;;;9.52;1.45;;;;;;;21.42;68.11;100851.59;10605818;27;20047;-77
2023/12/07 13:34:45;;;;;;;6.18;1.35;;;;;;;21.48;69.36;100850.53;10605282;27;20059;-78
2023/12/07 13:40:10;;;;;;;6.82;1.48;;;;;;;21.40;70.65;100874.91;10590912;27;20146;-77
2023/12/07 13:45:32;;;;;;;12.32;5.18;;;;;;;21.53;70.02;100885.34;10573650;27;20054;-78
2023/12/07 13:50:56;;;;;;;13.13;2.00;;;;;;;21.41;71.43;100884.75;10604337;27;20047;-77
2023/12/07 13:56:20;;;;;;;16.98;9.52;;;;;;;21.13;74.51;100894.44;10590733;27;20058;-79
2023/12/07 14:01:42;;;;;;;15.75;5.25;;;;;;;21.26;74.14;100886.97;10583688;27;20051;-78
2023/12/07 14:07:11;;;;;;;9.20;1.92;;;;;;;21.16;76.14;100890.81;10603825;27;20107;-78
2023/12/07 14:12:34;;;;;;;8.13;2.33;;;;;;;21.17;78.69;100887.19;10602832;27;20059;-78
2023/12/07 14:17:57;;;;;;;9.15;1.73;;;;;;;20.87;85.00;100876.28;10603844;27;20664;-78
2023/12/07 14:23:21;;;;;;;4.97;1.23;;;;;;;20.27;95.58;100881.28;10603380;27;20051;-78
2023/12/07 14:28:43;;;;;;;4.97;1.75;;;;;;;20.40;97.72;100879.22;10569471;27;20101;-78
2023/12/07 14:34:06;;;;;;;8.40;1.92;;;;;;;20.30;98.14;100867.78;10574303;27;20142;-75
2023/12/07 14:39:30;;;;;;;6.97;1.90;;;;;;;20.02;100.00;100880.03;10602186;27;20130;-75
2023/12/07 14:44:52;;;;;;;22.55;14.43;;;;;;;19.96;99.44;100898.91;10596112;27;20508;-76
2023/12/07 14:50:15;;;;;;;17.48;13.63;;;;;;;19.48;100.00;100890.94;10599405;27;20109;-78
2023/12/07 14:55:39;;;;;;;7.30;3.22;;;;;;;19.11;100.00;100886.22;10587094;27;20057;-79
2023/12/07 15:01:02;;;;;;;8.05;2.60;;;;;;;19.18;100.00;100888.78;10601412;27;20078;-77
2023/12/07 15:06:25;;;;;;;6.53;1.15;;;;;;;18.99;96.91;100891.78;10585015;27;20144;-75
2023/12/07 15:11:49;;;;;;;4.13;0.90;;;;;;;18.81;91.17;100889.41;10586216;27;20051;-78
2023/12/07 15:17:12;;;;;;;11.35;9.63;;;;;;;19.03;85.17;100912.22;10584752;27;20496;-75
2023/12/07 15:22:35;;;;;;;9.05;5.40;;;;;;;19.02;84.28;100926.53;10592504;27;20058;-77
2023/12/07 15:27:59;;;;;;;4.63;2.83;;;;;;;19.00;82.28;100933.69;10600704;27;20078;-75
2023/12/07 15:33:21;;;;;;;28.15;21.80;;;;;;;18.81;85.87;100924.19;10599417;27;20104;-76
2023/12/07 15:38:44;;;;;;;4.70;3.50;;;;;;;18.52;91.06;100923.69;10574358;27;20038;-76
2023/12/07 15:44:08;;;;;;;7.70;4.28;;;;;;;18.20;96.90;100932.16;10590725;28;20054;-76
2023/12/07 15:49:31;;;;;;;9.43;2.65;;;;;;;18.12;99.82;100928.69;10591516;28;20058;-76
2023/12/07 15:54:53;;;;;;;4.13;1.75;;;;;;;18.01;100.00;100938.63;10588194;28;20039;-75
2023/12/07 16:00:17;;;;;;;6.65;1.83;;;;;;;17.91;100.00;100953.91;10588958;28;20047;-75
2023/12/07 16:05:40;;;;;;;5.18;1.83;;;;;;;17.87;100.00;100960.16;10602830;27;20047;-75
2023/12/07 16:11:02;;;;;;;5.65;1.40;;;;;;;17.86;100.00;100959.25;10594097;27;20055;-76
2023/12/07 16:16:26;;;;;;;3.10;1.52;;;;;;;17.85;100.00;100961.97;10594519;27;20047;-77
2023/12/07 16:21:49;;;;;;;5.00;1.90;;;;;;;17.82;100.00;100962.88;10608495;27;20058;-76
2023/12/07 16:27:11;;;;;;;8.32;1.90;;;;;;;17.80;100.00;100964.69;10608277;27;20143;-75
2023/12/07 16:32:36;;;;;;;5.75;1.55;;;;;;;17.97;100.00;100977.88;10593728;27;20058;-75
2023/12/07 16:37:59;;;;;;;8.57;2.80;;;;;;;18.16;100.00;100983.88;10608074;27;20142;-75
2023/12/07 16:43:21;;;;;;;7.55;2.60;;;;;;;18.17;100.00;100980.31;10605010;27;20055;-75
2023/12/07 16:48:45;;;;;;;7.72;2.35;;;;;;;18.08;100.00;100986.63;10573222;28;20036;-76
2023/12/07 16:54:07;;;;;;;9.68;2.65;;;;;;;17.97;100.00;100991.22;10557574;28;20439;-75
2023/12/07 16:59:30;;;;;;;5.72;2.25;;;;;;;18.04;100.00;100984.91;10565293;28;20047;-75
2023/12/07 17:04:54;;;;;;;4.72;1.95;;;;;;;18.24;100.00;100974.88;10569734;28;20517;-75
2023/12/07 17:10:16;;;;;;;8.02;2.63;;;;;;;18.48;100.00;100972.78;10567581;28;20063;-75
2023/12/07 17:15:39;;;;;;;3.83;1.35;;;;;;;18.06;100.00;100974.19;10573779;28;20393;-75
2023/12/07 17:21:04;;;;;;;5.13;0.98;;;;;;;17.77;100.00;100978.09;10577675;27;20116;-75
2023/12/07 17:26:27;;;;;;;3.78;1.15;;;;;;;17.90;100.00;100981.50;10574361;28;20052;-74
2023/12/07 17:31:49;;;;;;;3.42;0.73;;;;;;;17.97;100.00;100979.66;10569390;28;20067;-77
2023/12/07 17:37:13;;;;;;;1.42;0.68;;;;;;;18.02;100.00;100989.38;10575978;28;20128;-75
2023/12/07 17:42:35;;;;;;;1.45;0.63;;;;;;;18.20;100.00;100991.81;10550426;28;20659;-76
2023/12/07 17:47:58;;;;;;;1.30;0.80;;;;;;;18.19;100.00;101005.19;10562131;28;20128;-75
2023/12/07 17:53:22;;;;;;;2.17;0.90;;;;;;;17.59;100.00;101014.72;10570807;28;20094;-75
2023/12/07 17:58:44;;;;;;;2.28;0.82;;;;;;;16.86;100.00;101023.28;10547538;28;20055;-76
2023/12/07 18:04:07;;;;;;;2.72;1.17;;;;;;;16.85;100.00;101010.84;10555747;28;20091;-74
2023/12/07 18:09:31;;;;;;;2.67;1.02;;;;;;;16.92;100.00;100997.47;10566026;28;20047;-73
2023/12/07 18:14:53;;;;;;;2.50;1.13;;;;;;;16.94;100.00;100990.31;10567951;28;20059;-74
2023/12/07 18:20:16;;;;;;;2.28;1.60;;;;;;;16.86;100.00;100986.84;10576196;28;20040;-74
2023/12/07 18:25:40;;;;;;;3.15;1.98;;;;;;;16.72;100.00;100978.91;10530183;28;20649;-77
2023/12/07 18:31:03;;;;;;;5.10;2.03;;;;;;;16.49;100.00;100974.56;10553596;28;20078;-76
2023/12/07 18:36:25;;;;;;;2.78;1.90;;;;;;;16.20;100.00;100982.69;10560122;28;20046;-75
2023/12/07 18:41:49;;;;;;;3.30;1.65;;;;;;;16.08;100.00;100962.31;10527125;28;20051;-75
2023/12/07 18:47:12;;;;;;;9.25;4.13;;;;;;;16.08;100.00;100972.94;10594316;27;20100;-75
2023/12/07 18:52:34;;;;;;;4.80;3.90;;;;;;;16.21;100.00;100969.34;10597835;27;20538;-77
2023/12/07 18:57:58;;;;;;;6.43;3.60;;;;;;;16.48;100.00;100972.78;10604552;27;20070;-76
2023/12/07 19:03:21;;;;;;;6.82;4.13;;;;;;;16.59;100.00;100953.19;10603798;27;20047;-76
2023/12/07 19:08:43;;;;;;;3.53;2.25;;;;;;;16.73;100.00;100942.47;10584594;27;20561;-76
2023/12/07 19:14:07;;;;;;;2.38;1.00;;;;;;;16.90;100.00;100931.69;10585501;27;20153;-75
2023/12/07 19:19:29;;;;;;;2.35;1.60;;;;;;;17.20;100.00;100935.91;10559514;28;20047;-75
2023/12/07 19:24:52;;;;;;;2.03;1.58;;;;;;;17.45;100.00;100946.34;10566129;27;20392;-76
2023/12/07 19:30:16;;;;;;;2.00;1.17;;;;;;;17.50;100.00;100949.84;10589766;27;20071;-75
2023/12/07 19:35:38;;;;;;;1.55;1.02;;;;;;;17.67;100.00;100951.47;10575205;27;20043;-74
2023/12/07 19:41:02;;;;;;;1.63;0.57;;;;;;;17.73;100.00;100960.31;10563940;27;20043;-74
2023/12/07 19:46:27;;;;;;;2.17;0.80;;;;;;;17.70;100.00;100972.81;10602317;28;20066;-75
2023/12/07 19:51:49;;;;;;;2.63;1.00;;;;;;;17.76;100.00;100973.63;10586950;28;20067;-76
2023/12/07 19:57:12;;;;;;;2.35;1.13;;;;;;;17.81;100.00;100970.91;10566321;28;20516;-74
2023/12/07 20:02:36;;;;;;;3.63;0.82;;;;;;;17.75;100.00;100970.97;10592557;28;20047;-74
2023/12/07 20:07:59;;;;;;;2.80;1.00;;;;;;;17.78;100.00;100982.53;10579825;28;20038;-75
2023/12/07 20:13:22;;;;;;;2.67;0.70;;;;;;;17.71;100.00;100975.47;10601015;28;20516;-76
2023/12/07 20:18:46;;;;;;;4.75;1.20;;;;;;;17.51;100.00;100961.41;10588221;28;20706;-76
2023/12/07 20:24:09;;;;;;;6.25;1.02;;;;;;;17.28;100.00;100960.72;10589135;28;20047;-77
2023/12/07 20:29:34;;;;;;;6.35;1.63;;;;;;;17.06;100.00;100957.34;10578619;28;20044;-78
2023/12/07 20:34:58;;;;;;;4.82;1.30;;;;;;;17.06;100.00;100947.56;10592213;28;20065;-77
2023/12/07 20:40:20;;;;;;;4.75;1.60;;;;;;;16.74;100.00;100944.22;10600047;28;20096;-77
2023/12/07 20:45:43;;;;;;;5.88;1.40;;;;;;;16.48;100.00;100946.13;10596285;27;20755;-76
2023/12/07 20:51:06;;;;;;;4.38;1.13;;;;;;;16.44;100.00;100939.94;10581467;27;20045;-78
2023/12/07 20:56:29;;;;;;;1.90;0.88;;;;;;;16.42;100.00;100930.19;10591568;27;20083;-77
2023/12/07 21:01:51;;;;;;;1.50;0.68;;;;;;;16.55;100.00;100932.75;10601152;27;20071;-77
2023/12/07 21:07:15;;;;;;;3.53;1.15;;;;;;;16.82;100.00;100939.72;10591633;27;20054;-78
2023/12/07 21:12:40;;;;;;;4.72;0.80;;;;;;;17.05;100.00;100928.91;10598247;27;20044;-77
2023/12/07 21:18:03;;;;;;;1.40;0.50;;;;;;;17.07;100.00;100925.31;10579398;27;20053;-78
2023/12/07 21:23:27;;;;;;;1.65;0.77;;;;;;;17.14;100.00;100919.03;10605077;27;20073;-77
2023/12/07 21:28:50;;;;;;;0.95;0.55;;;;;;;17.34;100.00;100929.50;10611469;27;20040;-77
2023/12/07 21:34:13;;;;;;;0.77;0.60;;;;;;;17.42;100.00;100927.66;10563086;28;20051;-77
2023/12/07 21:39:38;;;;;;;2.65;0.60;;;;;;;17.21;100.00;100921.63;10609499;27;20108;-77
2023/12/07 21:45:00;;;;;;;1.42;0.68;;;;;;;17.08;100.00;100908.41;10590271;27;20145;-77
2023/12/07 21:50:24;;;;;;;1.95;0.68;;;;;;;17.06;100.00;100910.22;10602538;27;20050;-77
2023/12/07 21:55:48;;;;;;;3.47;0.57;;;;;;;17.16;100.00;100919.00;10562396;27;20070;-77
2023/12/07 22:01:15;;;;;;;3.55;1.00;;;;;;;17.44;100.00;100915.19;10574004;27;20077;-77
2023/12/07 22:06:38;;;;;;;0.40;0.40;;;;;;;17.64;100.00;100903.47;10583564;27;20050;-78
2023/12/07 22:12:02;;;;;;;1.80;0.68;;;;;;;17.26;100.00;100885.16;10604557;27;20051;-77
2023/12/07 22:17:24;;;;;;;4.07;0.70;;;;;;;17.01;100.00;100866.69;10607523;27;20130;-77
2023/12/07 22:22:46;;;;;;;3.65;0.75;;;;;;;17.04;100.00;100874.66;10624758;27;20043;-78
2023/12/07 22:28:10;;;;;;;1.52;0.60;;;;;;;17.26;100.00;100869.13;10581709;27;20431;-77
2023/12/07 22:33:33;;;;;;;2.85;0.75;;;;;;;17.44;100.00;100859.16;10576142;27;20104;-78
2023/12/07 22:38:55;;;;;;;1.83;0.70;;;;;;;17.44;100.00;100845.81;10557572;27;20097;-78
2023/12/07 22:44:19;;;;;;;3.28;1.08;;;;;;;17.35;100.00;100851.22;10560740;28;20051;-78
2023/12/07 22:49:42;;;;;;;3.80;0.80;;;;;;;17.35;100.00;100837.88;10560439;27;20053;-78
2023/12/07 22:55:05;;;;;;;3.47;0.60;;;;;;;17.32;100.00;100837.94;10560546;28;20048;-78
2023/12/07 23:00:29;;;;;;;0.43;0.40;;;;;;;17.37;100.00;100844.09;10582224;27;20036;-77
2023/12/07 23:05:51;;;;;;;2.13;0.43;;;;;;;17.51;100.00;100859.97;10553659;27;20100;-76
2023/12/07 23:11:14;;;;;;;1.00;0.60;;;;;;;17.46;100.00;100857.31;10558561;27;20373;-77
2023/12/07 23:16:38;;;;;;;1.40;0.70;;;;;;;17.27;100.00;100871.75;10570376;27;20045;-77
2023/12/07 23:22:00;;;;;;;3.30;0.60;;;;;;;17.17;100.00;100867.44;10561517;27;20047;-78
2023/12/07 23:27:22;;;;;;;1.50;0.77;;;;;;;17.11;100.00;100879.06;10585399;27;20043;-77
2023/12/07 23:32:46;;;;;;;1.15;0.70;;;;;;;17.13;100.00;100868.38;10562504;27;20067;-76
2023/12/07 23:38:11;;;;;;;4.85;1.00;;;;;;;16.95;100.00;100882.75;10562388;27;20104;-76
2023/12/07 23:43:34;;;;;;;1.60;0.50;;;;;;;16.58;100.00;100884.78;10587114;27;20055;-77
2023/12/07 23:48:58;;;;;;;2.70;0.77;;;;;;;16.54;100.00;100892.81;10572368;28;20593;-77
2023/12/07 23:54:20;;;;;;;3.10;0.75;;;;;;;16.65;100.00;100883.88;10544654;28;20075;-77
2023/12/07 23:59:42;;;;;;;3.47;0.75;;;;;;;16.64;100.00;100883.88;10585937;27;20054;-77
